Alphen aan den Rijn, Netherlands
Current Conditions -  °F | °C
As of 1:25 PM on Thursday 18 Dec 2014 (Local Time) from EHAM Reporting Station
Light Rain Light Rain  
Wind Chill: 55°   Ceiling: 1200
Heat Index: 55°   Visibility: 6mi
Dew Point: 52°   Wind: 26mph
Humidity: 88%   Direction: 230°SW
Pressure: 29.74"   Gusts: 38mph
Location:  52.13°N, 4.66°E
Report Text: EHAM 181225Z 23023G33KT 210V270 9999 -RADZ FEW009 BKN012 BKN04513/11 Q1007 TEMPO 6000
Loading
Personal Weather Stations






























Interactive Weather Map New forecast layout! Learn more

10-Day Weather Forecast

Advertisements
Track Severe Weather on mobile